Fuerteventura > ESTACION METEOROLÓGICA Tiscamanita - Tuineje

DATOS ACTUALES Online

Ultima actulizacion 17 minutos

15.5 ºC

Temperatura

47

Humedad (%)

994.85

Presión (mb)

0

Precipitación (mm)

33.4 SO

Viento (Km/h)

DATOS DIARIOS

Temperatura últimas 24 horas (ºC)

Humedad últimas 24 horas (%)

Presión atmosférica últimas 24 horas (mb)

Precipitaciones últimas 23 horas (mm)

Viento últimas 24 horas (Km/h)

Hora Temperatura (°C) ºC Precipitación (mm) mm Presión (mb) mb Humedad (%) % Viento (Km/h) km/h
19 - 10:00 13.2 1.7 994 86 23.1 SO
19 - 11:00 13.3 1.7 994 86 21.1 SO
19 - 12:00 13.6 1.7 994 88 17.8 SO
19 - 13:00 14.3 1.7 993 87 16.9 SO
19 - 14:00 15.6 1.7 992 79 22.8 SO
19 - 15:00 15.9 1.7 992 72 21.6 O
19 - 16:00 15.6 1.7 992 68 21.3 SO
19 - 17:00 15.3 1.7 992 68 16.3 O
19 - 18:00 14.8 1.7 993 69 12.1 NO
19 - 19:00 14.6 1.7 993 70 7.5 N
19 - 20:00 15.1 1.7 994 68 9.9 NO
19 - 21:00 15.5 1.7 994 62 6.7 NW
19 - 22:00 15.1 1.7 994 61 10 SO
19 - 23:00 14.9 1.7 994 61 8.6 SO
20 - 00:00 15.1 0 993 60 7.4 O
20 - 01:00 14.8 0 993 58 14 O
20 - 02:00 14.1 0 993 55 10.9 SO
20 - 03:00 13.9 0 993 53 14.1 O
20 - 04:00 13.3 0 993 56 13 O
20 - 05:00 12.6 0 993 60 8.8 O
20 - 06:00 13.2 0 993 57 17.4 SO
20 - 07:00 12.3 0 993 61 11.2 O
20 - 08:00 13.8 0 994 56 16.1 SO
20 - 09:00 15 0 994 51 26.5 SO
20 - 10:00 15.5 0 995 47 33.4 SO
Apalmet utiliza cookies propias y de terceros para mejorar la usabilidad y la experiencia web. Política de cookies.